Praco, Alabama
Current Conditions -  °F | °C
As of 8:15 AM on Monday 24 Nov 2014 (Local Time) from KJFX Reporting Station
Few Clouds Few Clouds  
Wind Chill: 63°   Ceiling: Unl
Heat Index: 63°   Visibility: 10mi
Dew Point: 54°   Wind: 9mph
Humidity: 72%   Direction: 250°WSW
Pressure: 29.79"   Gusts: 20mph
Location:  33.6422°N, 87.1382°W
Report Text: KJFX 241415Z AUTO 25008G17KT 10SM FEW025 FEW036 17/12 A2979 RMK A02 P-128
Loading
Personal Weather Stations






























Interactive Weather Map New forecast layout! Learn more

10-Day Weather Forecast

Advertisements
Track Severe Weather on mobile